Time;durP1;ratioP1;P1;durP2;ratioP2;P2;SDS_P1;SDS_P2;PMS_P1;PMS_P2;Temp;Humidity;BMP_temperature;BMP_pressure;BME280_temperature;BME280_humidity;BME280_pressure;Samples;Min_cycle;Max_cycle;Signal;HPM_P1;HPM_P2
2023/03/05 00:01:50;;;;;;;23.67;10.67;;;;;;;17.20;51.30;100758.81;5113234;28;20411;-59
2023/03/05 00:04:15;;;;;;;22.53;11.37;;;;;;;17.24;50.72;100764.63;5093038;28;20270;-59
2023/03/05 00:06:41;;;;;;;22.20;8.80;;;;;;;17.22;51.55;100761.31;5127455;27;20192;-60
2023/03/05 00:09:07;;;;;;;19.40;9.07;;;;;;;17.21;50.66;100760.47;5131439;27;20265;-60
2023/03/05 00:11:32;;;;;;;19.87;9.90;;;;;;;17.15;50.93;100753.34;5111096;28;20637;-59
2023/03/05 00:13:58;;;;;;;29.37;9.57;;;;;;;17.17;51.00;100748.13;5111528;28;20182;-59
2023/03/05 00:16:26;;;;;;;20.00;10.07;;;;;;;17.23;50.83;100754.41;5103247;28;20186;-59
2023/03/05 00:18:52;;;;;;;16.13;9.20;;;;;;;17.28;50.38;100752.16;5092993;28;20592;-60
2023/03/05 00:21:23;;;;;;;17.13;9.70;;;;;;;17.29;50.53;100759.50;5119018;27;20458;-60
2023/03/05 00:23:51;;;;;;;20.03;10.20;;;;;;;17.23;50.29;100757.25;5110095;28;20469;-60
2023/03/05 00:26:18;;;;;;;21.97;11.47;;;;;;;17.24;50.52;100745.50;5112081;28;20842;-58
2023/03/05 00:28:43;;;;;;;21.43;9.43;;;;;;;17.22;50.61;100756.44;5111067;28;20436;-58
2023/03/05 00:31:09;;;;;;;25.47;9.60;;;;;;;17.24;50.81;100748.34;5111331;28;20474;-58
2023/03/05 00:33:34;;;;;;;18.37;9.20;;;;;;;17.30;50.59;100752.59;5111452;28;20177;-59
2023/03/05 00:36:03;;;;;;;22.70;10.47;;;;;;;17.34;50.38;100759.25;5103672;28;20182;-59
2023/03/05 00:38:29;;;;;;;23.90;9.90;;;;;;;17.25;50.65;100760.59;5093763;28;20254;-59
2023/03/05 00:40:54;;;;;;;23.10;9.60;;;;;;;17.20;50.70;100753.09;5111766;28;20455;-59
2023/03/05 00:43:19;;;;;;;22.07;9.77;;;;;;;17.21;51.22;100749.06;5110902;28;20189;-58
2023/03/05 00:45:45;;;;;;;20.53;9.67;;;;;;;17.26;50.99;100745.13;5111658;28;20178;-59
2023/03/05 00:48:10;;;;;;;18.83;10.20;;;;;;;17.21;51.03;100743.34;5111622;28;20165;-59
2023/03/05 00:50:36;;;;;;;17.20;8.77;;;;;;;17.21;51.00;100736.84;5110357;28;20166;-59
2023/03/05 00:53:01;;;;;;;17.60;9.67;;;;;;;17.22;51.05;100739.31;5111285;28;20194;-59
2023/03/05 00:55:26;;;;;;;18.63;10.10;;;;;;;17.20;50.96;100733.13;5111469;28;20174;-59
2023/03/05 00:57:52;;;;;;;22.50;9.67;;;;;;;17.22;51.03;100741.34;5110681;28;20185;-57
2023/03/05 01:00:18;;;;;;;20.17;9.23;;;;;;;17.21;51.00;100729.09;5111060;28;20197;-58
2023/03/05 01:02:43;;;;;;;21.63;10.07;;;;;;;17.18;51.08;100731.84;5111334;28;20166;-58
2023/03/05 01:05:11;;;;;;;18.97;8.73;;;;;;;17.15;51.12;100721.97;5111105;28;20212;-58
2023/03/05 01:07:36;;;;;;;18.27;10.37;;;;;;;17.19;51.07;100719.22;5105450;27;20233;-59
2023/03/05 01:10:01;;;;;;;20.73;8.63;;;;;;;17.21;51.15;100714.81;5129258;27;20425;-59
2023/03/05 01:12:27;;;;;;;21.23;9.93;;;;;;;17.20;50.92;100718.06;5118845;27;20189;-59
2023/03/05 01:14:52;;;;;;;18.80;8.77;;;;;;;17.17;50.97;100722.47;5110905;28;20181;-59
2023/03/05 01:17:18;;;;;;;18.97;9.33;;;;;;;17.18;51.24;100715.56;5109762;28;20192;-58
2023/03/05 01:19:43;;;;;;;13.97;7.87;;;;;;;17.18;51.12;100704.16;5110658;28;20209;-59
2023/03/05 01:22:08;;;;;;;23.93;9.70;;;;;;;17.17;50.99;100705.34;5111035;28;20162;-58
2023/03/05 01:24:34;;;;;;;21.70;8.77;;;;;;;17.17;50.93;100713.91;5110578;28;20686;-59
2023/03/05 01:26:59;;;;;;;19.00;10.03;;;;;;;17.21;51.22;100703.41;5108272;28;20196;-58
2023/03/05 01:29:25;;;;;;;19.43;9.37;;;;;;;17.18;50.93;100700.44;5080774;28;20189;-58
2023/03/05 01:31:50;;;;;;;14.80;8.30;;;;;;;17.17;50.85;100693.94;5110408;28;20211;-59
2023/03/05 01:34:16;;;;;;;14.33;7.40;;;;;;;17.25;50.62;100694.97;5110928;28;20620;-57
2023/03/05 01:36:42;;;;;;;18.93;8.30;;;;;;;17.24;50.55;100691.28;5110760;28;20227;-58
2023/03/05 01:39:07;;;;;;;17.40;9.10;;;;;;;17.19;50.72;100677.28;5111032;28;20443;-58
2023/03/05 01:41:33;;;;;;;20.67;9.30;;;;;;;17.18;50.74;100680.47;5110136;28;20186;-58
2023/03/05 01:43:59;;;;;;;20.80;8.17;;;;;;;17.15;50.89;100682.03;5110439;28;20210;-58
2023/03/05 01:46:28;;;;;;;17.97;8.80;;;;;;;17.17;51.07;100679.66;5107297;28;22145;-58
2023/03/05 01:48:55;;;;;;;16.17;8.87;;;;;;;17.17;50.43;100684.53;5106214;28;20185;-58
2023/03/05 01:51:23;;;;;;;15.53;8.37;;;;;;;17.13;50.75;100675.03;5091676;28;20563;-59
2023/03/05 01:53:48;;;;;;;18.70;7.80;;;;;;;17.15;50.76;100676.34;5090820;28;20435;-58
2023/03/05 01:56:14;;;;;;;16.03;8.20;;;;;;;17.29;50.27;100682.47;5110307;28;20419;-59
2023/03/05 01:58:39;;;;;;;17.10;8.77;;;;;;;17.23;51.04;100677.38;5091470;28;20731;-58
2023/03/05 02:01:05;;;;;;;17.10;8.10;;;;;;;17.21;51.11;100669.16;5099501;28;20189;-61
2023/03/05 02:03:30;;;;;;;16.30;8.60;;;;;;;17.18;50.92;100672.75;5111431;28;20197;-61
2023/03/05 02:05:56;;;;;;;18.63;8.77;;;;;;;17.15;51.07;100667.78;5125369;27;20177;-61
2023/03/05 02:08:21;;;;;;;16.03;8.40;;;;;;;17.16;51.16;100662.91;5128722;27;20228;-61
2023/03/05 02:10:48;;;;;;;13.60;7.70;;;;;;;17.15;50.71;100659.22;5126710;28;20202;-61
2023/03/05 02:13:16;;;;;;;17.70;9.03;;;;;;;17.15;51.06;100659.22;5091774;28;20173;-61
2023/03/05 02:15:41;;;;;;;13.80;7.90;;;;;;;17.14;51.03;100651.84;5123642;27;20505;-61
2023/03/05 02:18:07;;;;;;;19.27;9.00;;;;;;;17.14;50.90;100657.56;5110709;28;20463;-61
2023/03/05 02:20:47;;;;;;;16.03;8.67;;;;;;;17.11;51.60;100652.56;5109297;28;20232;-61
2023/03/05 02:23:12;;;;;;;16.70;8.20;;;;;;;17.14;51.42;100654.72;5128496;28;20166;-61
2023/03/05 02:25:38;;;;;;;17.40;7.97;;;;;;;17.14;51.07;100651.00;5128399;28;20426;-61
2023/03/05 02:28:06;;;;;;;13.90;7.40;;;;;;;17.17;51.03;100651.13;5128867;28;20184;-61
2023/03/05 02:30:32;;;;;;;21.10;8.20;;;;;;;17.15;51.43;100647.00;5128157;28;20208;-61
2023/03/05 02:32:57;;;;;;;14.73;7.80;;;;;;;17.17;51.18;100642.59;5127815;28;20458;-61
2023/03/05 02:35:23;;;;;;;15.80;8.23;;;;;;;17.15;50.98;100647.00;5126307;28;20166;-61
2023/03/05 02:37:48;;;;;;;16.07;7.70;;;;;;;17.13;50.89;100650.19;5100235;28;20186;-61
2023/03/05 02:40:14;;;;;;;12.90;7.23;;;;;;;17.10;50.86;100644.41;5107914;28;20210;-61
2023/03/05 02:42:39;;;;;;;15.10;8.20;;;;;;;17.15;50.71;100639.25;5121133;28;20524;-61
2023/03/05 02:45:05;;;;;;;20.60;8.60;;;;;;;17.15;50.62;100636.38;5127984;28;20188;-61
2023/03/05 02:47:31;;;;;;;12.27;7.20;;;;;;;17.10;51.11;100630.94;5120420;28;20182;-61
2023/03/05 02:49:56;;;;;;;17.30;7.77;;;;;;;17.20;50.84;100632.47;5128297;28;20157;-61
2023/03/05 02:52:25;;;;;;;19.90;9.03;;;;;;;17.21;50.76;100629.22;5127809;28;20174;-61
2023/03/05 02:54:51;;;;;;;22.80;8.93;;;;;;;17.16;50.65;100625.81;5127802;28;20158;-61
2023/03/05 02:57:17;;;;;;;13.70;7.20;;;;;;;17.11;50.80;100620.38;5127364;28;20450;-61
2023/03/05 02:59:42;;;;;;;11.63;7.23;;;;;;;17.13;50.72;100626.53;5127603;28;20554;-61
2023/03/05 03:02:08;;;;;;;18.00;8.97;;;;;;;17.14;51.00;100611.91;5109400;28;20412;-61
2023/03/05 03:04:33;;;;;;;15.93;7.93;;;;;;;17.15;50.78;100612.75;5127131;28;20208;-61
2023/03/05 03:06:59;;;;;;;13.23;8.67;;;;;;;17.16;50.74;100618.06;5128361;28;20185;-61
2023/03/05 03:09:25;;;;;;;19.50;8.10;;;;;;;17.13;50.78;100610.25;5127481;28;20231;-61
2023/03/05 03:11:51;;;;;;;15.50;8.57;;;;;;;17.12;51.04;100610.63;5126811;28;20215;-61
2023/03/05 03:14:16;;;;;;;18.50;9.27;;;;;;;17.12;51.18;100614.31;5130016;28;20415;-61
2023/03/05 03:16:41;;;;;;;13.67;7.97;;;;;;;17.21;50.94;100603.53;5130130;28;20568;-61
2023/03/05 03:19:07;;;;;;;15.53;8.10;;;;;;;17.19;50.78;100608.81;5130374;28;20251;-61
2023/03/05 03:21:32;;;;;;;15.30;8.03;;;;;;;17.21;50.66;100599.88;5130771;28;20170;-61
2023/03/05 03:23:58;;;;;;;16.10;7.80;;;;;;;17.19;50.66;100602.25;5129545;28;20181;-61
2023/03/05 03:26:23;;;;;;;12.83;7.20;;;;;;;17.17;50.73;100596.94;5130358;28;20173;-61
2023/03/05 03:28:49;;;;;;;17.13;8.73;;;;;;;17.15;50.99;100601.34;5129949;28;20182;-61
2023/03/05 03:31:14;;;;;;;15.30;7.40;;;;;;;17.16;50.83;100597.28;5128667;28;20177;-61
2023/03/05 03:33:40;;;;;;;18.60;8.33;;;;;;;17.13;51.08;100593.16;5111295;28;20170;-61
2023/03/05 03:36:06;;;;;;;14.10;8.13;;;;;;;17.10;50.88;100593.06;5124346;27;20170;-61
2023/03/05 03:38:31;;;;;;;12.87;7.70;;;;;;;17.10;51.09;100587.34;5129263;28;20645;-61
2023/03/05 03:40:56;;;;;;;13.50;7.03;;;;;;;17.12;50.98;100588.63;5128731;28;20185;-61
2023/03/05 03:43:22;;;;;;;14.80;8.63;;;;;;;17.12;51.06;100590.66;5128148;28;20189;-61
2023/03/05 03:45:47;;;;;;;14.03;7.20;;;;;;;17.13;50.98;100589.44;5129424;28;20162;-61
2023/03/05 03:48:13;;;;;;;12.43;7.13;;;;;;;17.12;51.13;100582.94;5106135;28;20182;-61
2023/03/05 03:50:41;;;;;;;16.13;7.30;;;;;;;17.13;50.99;100578.88;5123573;28;20533;-61
2023/03/05 03:53:07;;;;;;;13.07;6.87;;;;;;;17.13;51.22;100586.59;5130100;28;20169;-61
2023/03/05 03:55:33;;;;;;;16.90;7.67;;;;;;;17.11;50.83;100583.28;5129229;28;20439;-61
2023/03/05 03:57:58;;;;;;;13.37;8.63;;;;;;;17.08;51.34;100578.31;5109448;28;20186;-61
2023/03/05 04:00:24;;;;;;;13.57;8.13;;;;;;;17.08;51.19;100570.59;5128245;28;20192;-61
2023/03/05 04:02:49;;;;;;;10.10;6.60;;;;;;;17.09;50.84;100575.09;5120895;28;20201;-61
2023/03/05 04:05:15;;;;;;;16.93;7.93;;;;;;;17.07;51.25;100573.81;5135319;27;20192;-61
2023/03/05 04:07:40;;;;;;;13.80;7.40;;;;;;;17.20;50.46;100564.81;5150197;27;20213;-61
2023/03/05 04:10:06;;;;;;;12.33;7.87;;;;;;;17.13;50.51;100564.63;5150525;27;20233;-61
2023/03/05 04:12:31;;;;;;;13.27;7.70;;;;;;;17.05;50.98;100568.47;5139955;27;20187;-61
2023/03/05 04:14:57;;;;;;;16.10;7.83;;;;;;;17.07;50.81;100566.09;5110847;28;20206;-61
2023/03/05 04:17:22;;;;;;;14.77;7.60;;;;;;;17.09;50.82;100563.69;5127605;28;20182;-61
2023/03/05 04:19:48;;;;;;;12.20;7.63;;;;;;;17.05;50.87;100561.94;5127477;28;20197;-61
2023/03/05 04:22:14;;;;;;;10.87;7.07;;;;;;;17.08;51.23;100556.31;5110361;28;20178;-61
2023/03/05 04:24:39;;;;;;;13.50;8.40;;;;;;;17.08;51.10;100566.91;5108373;28;20182;-61
2023/03/05 04:27:05;;;;;;;12.23;7.73;;;;;;;17.11;51.03;100560.47;5127818;28;20425;-60
2023/03/05 04:29:31;;;;;;;14.77;8.13;;;;;;;17.11;50.72;100552.72;5107895;28;20254;-61
2023/03/05 04:31:56;;;;;;;15.63;8.27;;;;;;;17.10;50.84;100541.72;5127138;28;20458;-61
2023/03/05 04:34:22;;;;;;;10.23;6.90;;;;;;;17.17;50.77;100554.16;5127038;28;20158;-61
2023/03/05 04:36:47;;;;;;;10.27;6.27;;;;;;;17.21;50.55;100543.63;5126117;28;20182;-61
2023/03/05 04:39:12;;;;;;;13.67;7.80;;;;;;;17.22;51.01;100542.47;5127570;28;20189;-61
2023/03/05 04:41:38;;;;;;;16.53;7.70;;;;;;;17.16;50.92;100546.75;5104363;28;20174;-61
2023/03/05 04:44:03;;;;;;;13.40;7.63;;;;;;;17.13;50.73;100546.66;5124865;28;20192;-61
2023/03/05 04:46:29;;;;;;;14.77;8.73;;;;;;;17.13;50.85;100541.78;5127612;28;20290;-61
2023/03/05 04:48:55;;;;;;;14.17;7.47;;;;;;;17.14;51.12;100543.44;5119229;28;20212;-61
2023/03/05 04:51:21;;;;;;;12.63;7.37;;;;;;;17.15;50.82;100533.69;5126798;28;20185;-61
2023/03/05 04:53:46;;;;;;;13.60;7.13;;;;;;;17.12;50.67;100539.31;5124832;28;20444;-61
2023/03/05 04:56:12;;;;;;;11.80;6.40;;;;;;;17.09;51.05;100529.44;5126601;28;20196;-61
2023/03/05 04:58:37;;;;;;;11.67;7.03;;;;;;;17.09;50.99;100534.31;5128487;27;20189;-61
2023/03/05 05:01:03;;;;;;;12.77;6.50;;;;;;;17.07;51.29;100531.84;5125559;28;20657;-61
2023/03/05 05:03:29;;;;;;;11.93;6.93;;;;;;;17.09;51.71;100535.16;5125068;28;20292;-61
2023/03/05 05:05:55;;;;;;;14.60;7.67;;;;;;;17.11;51.30;100529.91;5110056;28;20442;-60
2023/03/05 05:08:21;;;;;;;14.60;7.00;;;;;;;17.07;50.92;100536.72;5107630;28;20228;-61
2023/03/05 05:10:55;;;;;;;13.43;7.07;;;;;;;17.05;50.82;100539.13;5124856;28;20407;-61
2023/03/05 05:13:20;;;;;;;13.47;6.80;;;;;;;17.09;51.20;100529.44;5124173;28;20165;-61
2023/03/05 05:15:46;;;;;;;16.83;7.73;;;;;;;17.06;50.99;100530.16;5125865;28;20525;-61
2023/03/05 05:18:11;;;;;;;12.43;7.07;;;;;;;17.05;50.90;100530.56;5145061;27;20222;-61
2023/03/05 05:20:37;;;;;;;12.23;7.40;;;;;;;17.06;50.74;100521.63;5145692;27;20192;-61
2023/03/05 05:23:02;;;;;;;11.50;6.33;;;;;;;17.02;50.99;100523.56;5138848;27;20169;-61
2023/03/05 05:25:28;;;;;;;10.63;6.50;;;;;;;17.12;50.55;100523.03;5124188;28;20453;-61
2023/03/05 05:27:53;;;;;;;13.47;6.80;;;;;;;17.09;50.64;100517.19;5125164;27;20186;-61
2023/03/05 05:30:19;;;;;;;12.77;7.47;;;;;;;17.00;51.08;100520.22;5124315;28;20186;-61
2023/03/05 05:32:44;;;;;;;12.83;6.60;;;;;;;17.01;50.86;100529.63;5123687;28;20162;-61
2023/03/05 05:35:10;;;;;;;11.23;7.10;;;;;;;17.06;51.25;100523.66;5115085;28;20182;-62
2023/03/05 05:37:35;;;;;;;12.67;6.83;;;;;;;17.07;50.70;100522.47;5123754;28;20189;-61
2023/03/05 05:40:01;;;;;;;9.73;6.60;;;;;;;17.05;51.13;100522.81;5124389;28;20197;-61
2023/03/05 05:42:28;;;;;;;13.13;7.37;;;;;;;17.06;50.97;100523.66;5124346;28;20182;-61
2023/03/05 05:44:54;;;;;;;15.60;7.47;;;;;;;17.05;51.19;100522.81;5125846;28;20192;-61
2023/03/05 05:47:19;;;;;;;13.03;7.00;;;;;;;17.08;50.54;100526.97;5099252;28;20567;-61
2023/03/05 05:49:45;;;;;;;12.83;7.10;;;;;;;17.08;50.85;100529.81;5125244;28;20413;-61
2023/03/05 05:52:10;;;;;;;14.40;7.27;;;;;;;17.08;51.33;100519.25;5123901;28;20214;-62
2023/03/05 05:54:36;;;;;;;12.20;7.43;;;;;;;17.18;50.36;100524.41;5119468;28;20185;-62
2023/03/05 05:57:01;;;;;;;13.07;6.93;;;;;;;17.15;50.52;100519.44;5109567;27;20238;-61
2023/03/05 05:59:27;;;;;;;12.43;7.20;;;;;;;17.12;50.78;100525.88;5123623;28;20206;-61
2023/03/05 06:01:52;;;;;;;12.00;6.93;;;;;;;17.13;51.04;100516.13;5124578;28;20186;-61
2023/03/05 06:04:17;;;;;;;13.70;6.87;;;;;;;17.13;50.80;100523.84;5122925;28;20178;-61
2023/03/05 06:06:43;;;;;;;12.90;6.93;;;;;;;17.11;50.83;100527.06;5110069;28;20200;-61
2023/03/05 06:09:08;;;;;;;11.80;6.40;;;;;;;17.11;50.91;100521.34;5124958;28;20214;-61
2023/03/05 06:11:34;;;;;;;13.20;7.60;;;;;;;17.10;50.60;100524.59;5126940;27;20188;-62
2023/03/05 06:14:01;;;;;;;11.07;6.80;;;;;;;17.11;50.74;100517.69;5123351;28;20185;-61
2023/03/05 06:16:27;;;;;;;10.40;6.50;;;;;;;17.05;50.90;100522.81;5123132;28;20185;-61
2023/03/05 06:18:52;;;;;;;10.40;6.27;;;;;;;17.06;50.98;100523.66;5123872;28;20412;-61
2023/03/05 06:21:18;;;;;;;12.07;6.83;;;;;;;17.08;51.03;100522.09;5121929;28;20223;-61
2023/03/05 06:23:44;;;;;;;11.37;6.77;;;;;;;17.05;51.07;100514.25;5120229;28;20185;-61
2023/03/05 06:26:10;;;;;;;9.50;5.63;;;;;;;17.02;50.76;100512.16;5120371;28;20495;-61
2023/03/05 06:28:35;;;;;;;10.30;5.80;;;;;;;17.02;51.13;100515.00;5104584;28;20182;-62
2023/03/05 06:31:05;;;;;;;10.87;6.53;;;;;;;17.05;51.08;100511.41;5124389;28;20412;-61
2023/03/05 06:33:30;;;;;;;11.03;5.80;;;;;;;17.04;51.01;100520.31;5105031;28;20303;-61
2023/03/05 06:35:56;;;;;;;10.03;6.13;;;;;;;17.05;51.36;100505.69;5117307;28;20431;-61
2023/03/05 06:38:21;;;;;;;13.30;6.63;;;;;;;17.07;50.54;100509.03;5124334;28;20166;-61
2023/03/05 06:40:47;;;;;;;10.60;6.17;;;;;;;17.10;50.65;100501.78;5122539;28;20177;-61
2023/03/05 06:43:12;;;;;;;15.80;6.37;;;;;;;17.17;50.75;100507.66;5123461;28;20247;-61
2023/03/05 06:45:37;;;;;;;11.10;6.77;;;;;;;17.07;50.61;100503.34;5123225;28;20178;-62
2023/03/05 06:48:03;;;;;;;12.77;6.77;;;;;;;17.04;50.74;100509.75;5118230;28;20186;-61
2023/03/05 06:50:28;;;;;;;9.30;5.60;;;;;;;17.03;50.67;100508.09;5107451;28;20180;-61
2023/03/05 06:52:54;;;;;;;11.70;6.70;;;;;;;17.04;50.66;100511.78;5103004;28;20198;-61
2023/03/05 06:55:20;;;;;;;11.63;7.13;;;;;;;17.07;51.00;100513.91;5127538;28;20173;-61
2023/03/05 06:57:45;;;;;;;8.50;5.90;;;;;;;17.05;50.69;100505.69;5127521;28;20200;-61
2023/03/05 07:00:11;;;;;;;11.47;6.43;;;;;;;17.03;50.60;100508.09;5126313;28;20661;-61
2023/03/05 07:02:37;;;;;;;11.10;6.57;;;;;;;17.06;50.38;100504.50;5127823;28;20681;-61
2023/03/05 07:05:03;;;;;;;9.80;6.20;;;;;;;17.05;50.70;100504.91;5128492;28;20518;-61
2023/03/05 07:07:29;;;;;;;11.03;6.37;;;;;;;17.06;50.65;100510.22;5126882;28;20600;-61
2023/03/05 07:09:54;;;;;;;10.40;6.10;;;;;;;17.08;50.95;100515.56;5102655;28;20501;-62
2023/03/05 07:12:19;;;;;;;9.40;6.23;;;;;;;17.15;50.60;100499.47;5107759;28;20171;-62
2023/03/05 07:14:45;;;;;;;11.33;6.57;;;;;;;17.20;50.31;100502.03;5108086;28;20178;-62
2023/03/05 07:17:10;;;;;;;8.37;5.67;;;;;;;17.14;50.32;100508.38;5111648;28;20185;-62
2023/03/05 07:19:37;;;;;;;10.20;6.23;;;;;;;17.10;50.69;100502.56;5111290;28;20206;-62
2023/03/05 07:22:02;;;;;;;10.83;6.13;;;;;;;17.11;50.75;100494.88;5108087;28;20163;-62
2023/03/05 07:24:28;;;;;;;8.93;5.37;;;;;;;17.08;50.59;100493.56;5068724;28;20452;-62
2023/03/05 07:26:57;;;;;;;9.97;6.10;;;;;;;17.07;50.70;100494.78;5086709;28;20160;-62
2023/03/05 07:29:23;;;;;;;11.10;6.50;;;;;;;17.09;50.95;100492.38;5089360;28;20434;-62
2023/03/05 07:31:49;;;;;;;9.53;6.27;;;;;;;17.09;50.58;100489.53;5092216;28;20504;-62
2023/03/05 07:34:14;;;;;;;12.30;7.20;;;;;;;17.06;50.70;100500.84;5120770;28;20483;-62
2023/03/05 07:36:41;;;;;;;9.47;5.70;;;;;;;17.05;50.43;100487.78;5113067;28;20183;-62
2023/03/05 07:39:06;;;;;;;9.50;6.57;;;;;;;17.06;51.09;100487.38;5106511;28;20163;-61
2023/03/05 07:41:32;;;;;;;12.97;7.00;;;;;;;17.04;50.89;100488.94;5089167;28;20474;-62
2023/03/05 07:43:57;;;;;;;10.33;5.50;;;;;;;16.99;50.97;100481.50;5105446;28;20190;-62
2023/03/05 07:46:25;;;;;;;8.77;5.70;;;;;;;17.00;50.98;100479.50;5106857;28;20182;-62
2023/03/05 07:48:51;;;;;;;10.37;6.33;;;;;;;17.03;50.94;100479.59;5105997;28;20177;-62
2023/03/05 07:51:18;;;;;;;11.00;5.33;;;;;;;17.04;51.03;100497.50;5106973;28;20422;-62
2023/03/05 07:53:44;;;;;;;10.90;6.20;;;;;;;17.05;50.66;100487.78;5106587;28;20652;-62
2023/03/05 07:56:10;;;;;;;10.97;6.27;;;;;;;17.04;50.61;100480.41;5107547;28;20420;-62
2023/03/05 07:58:35;;;;;;;10.60;6.83;;;;;;;17.13;50.54;100486.75;5106755;28;20432;-62
2023/03/05 08:01:01;;;;;;;11.47;6.47;;;;;;;17.01;50.38;100493.38;5101007;28;20195;-62
2023/03/05 08:03:26;;;;;;;9.00;5.83;;;;;;;17.03;50.77;100493.84;5086970;28;20218;-62
2023/03/05 08:05:52;;;;;;;9.20;6.00;;;;;;;17.01;50.52;100486.84;5094610;28;20187;-62
2023/03/05 08:08:17;;;;;;;10.10;5.97;;;;;;;17.00;50.81;100485.19;5109551;27;20235;-62
2023/03/05 08:10:43;;;;;;;9.80;6.00;;;;;;;17.00;50.59;100488.06;5126852;28;20169;-62
2023/03/05 08:13:09;;;;;;;9.87;6.27;;;;;;;16.99;50.67;100477.81;5128610;28;20186;-62
2023/03/05 08:15:36;;;;;;;10.30;6.07;;;;;;;17.01;50.65;100481.94;5128028;28;20442;-62
2023/03/05 08:18:02;;;;;;;12.40;7.17;;;;;;;17.00;50.77;100488.84;5127819;28;20209;-62
2023/03/05 08:20:27;;;;;;;8.47;5.47;;;;;;;17.01;50.72;100486.84;5127509;28;20454;-62
2023/03/05 08:22:52;;;;;;;9.33;5.33;;;;;;;17.03;50.50;100479.59;5126116;28;20177;-62
2023/03/05 08:25:18;;;;;;;11.50;6.20;;;;;;;17.04;50.71;100475.53;5128219;28;20170;-62
2023/03/05 08:27:44;;;;;;;12.30;6.57;;;;;;;17.15;50.75;100481.53;5126180;28;20173;-62
2023/03/05 08:30:11;;;;;;;10.17;5.73;;;;;;;17.20;50.62;100473.50;5126501;28;20170;-62
2023/03/05 08:32:36;;;;;;;14.00;6.47;;;;;;;17.13;51.07;100470.47;5126285;28;20893;-62
2023/03/05 08:35:03;;;;;;;9.20;5.90;;;;;;;17.14;50.67;100474.97;5126923;28;20432;-62
2023/03/05 08:37:29;;;;;;;8.77;5.90;;;;;;;17.15;50.18;100475.81;5125981;28;20161;-62
2023/03/05 08:39:55;;;;;;;12.43;6.37;;;;;;;17.12;50.45;100482.25;5127473;28;20439;-62
2023/03/05 08:42:21;;;;;;;9.00;5.70;;;;;;;17.10;50.58;100464.69;5125611;28;20514;-62
2023/03/05 08:44:46;;;;;;;9.17;6.23;;;;;;;17.09;50.36;100466.69;5126430;28;20518;-62
2023/03/05 08:47:12;;;;;;;11.43;6.93;;;;;;;17.03;50.79;100468.19;5124224;28;20174;-62
2023/03/05 08:49:37;;;;;;;10.33;5.70;;;;;;;17.06;50.88;100470.28;5125499;28;20182;-62
2023/03/05 08:52:02;;;;;;;9.17;6.00;;;;;;;17.02;50.53;100462.84;5126128;28;20158;-62
2023/03/05 08:54:28;;;;;;;10.57;6.63;;;;;;;17.01;50.78;100464.03;5145053;27;20193;-62
2023/03/05 08:56:53;;;;;;;8.87;5.60;;;;;;;17.01;51.17;100459.13;5147808;27;20173;-62
2023/03/05 08:59:19;;;;;;;8.70;5.43;;;;;;;17.02;50.88;100460.81;5135541;27;20216;-62
2023/03/05 09:01:44;;;;;;;12.73;6.40;;;;;;;17.03;50.59;100461.63;5126107;28;20193;-62
2023/03/05 09:04:10;;;;;;;8.57;5.53;;;;;;;17.00;51.03;100451.78;5126002;28;20203;-62
2023/03/05 09:06:39;;;;;;;9.23;6.30;;;;;;;17.01;50.57;100452.63;5109475;28;20276;-62
2023/03/05 09:09:05;;;;;;;9.00;5.47;;;;;;;17.00;51.13;100454.63;5105758;28;20309;-62
2023/03/05 09:11:34;;;;;;;10.20;6.20;;;;;;;17.01;50.62;100459.13;5105373;28;20878;-62
2023/03/05 09:14:00;;;;;;;10.60;6.27;;;;;;;17.03;50.49;100461.63;5112512;28;21040;-62
2023/03/05 09:16:26;;;;;;;9.70;6.00;;;;;;;16.99;50.71;100455.84;5130333;27;20442;-62
2023/03/05 09:18:51;;;;;;;11.33;6.43;;;;;;;17.04;50.58;100452.72;5148348;27;20165;-62
2023/03/05 09:21:17;;;;;;;9.60;6.93;;;;;;;17.09;50.92;100445.88;5145879;27;20246;-62
2023/03/05 09:23:42;;;;;;;14.90;7.90;;;;;;;17.07;50.38;100446.28;5127233;28;20182;-62
2023/03/05 09:26:08;;;;;;;10.13;5.80;;;;;;;16.98;50.76;100436.22;5127564;28;20169;-62
2023/03/05 09:28:34;;;;;;;9.30;6.23;;;;;;;17.01;50.74;100435.50;5126999;28;20166;-62
2023/03/05 09:31:04;;;;;;;9.97;6.03;;;;;;;16.98;50.68;100431.38;5126092;28;20793;-62
2023/03/05 09:33:30;;;;;;;9.13;5.60;;;;;;;16.97;50.58;100429.72;5126093;28;20189;-62
2023/03/05 09:35:56;;;;;;;10.43;5.73;;;;;;;17.00;50.66;100423.25;5126835;28;20478;-62
2023/03/05 09:38:21;;;;;;;7.83;4.67;;;;;;;17.03;50.75;100430.25;5128024;27;20418;-62
2023/03/05 09:41:08;;;;;;;11.50;6.13;;;;;;;17.02;50.69;100420.06;5127483;28;20181;-62
2023/03/05 09:43:43;;;;;;;9.80;6.47;;;;;;;17.05;50.49;100437.25;5126972;27;20193;-62
2023/03/05 09:46:37;;;;;;;9.40;6.00;;;;;;;17.05;50.86;100425.03;5126347;28;20407;-62
2023/03/05 09:49:12;;;;;;;8.43;5.17;;;;;;;17.13;50.34;100421.16;5123905;28;20431;-61
2023/03/05 09:51:39;;;;;;;9.90;6.20;;;;;;;17.13;50.26;100433.41;5126450;27;20459;-62
2023/03/05 09:54:27;;;;;;;10.40;6.23;;;;;;;17.16;50.70;100424.09;5123269;28;20503;-62
2023/03/05 09:56:57;;;;;;;9.47;5.70;;;;;;;17.12;50.26;100425.19;5107163;28;20411;-62
2023/03/05 09:59:34;;;;;;;9.50;5.87;;;;;;;17.11;50.43;100427.22;5106179;28;20451;-62
2023/03/05 10:02:08;;;;;;;10.03;5.80;;;;;;;17.11;50.40;100430.06;5124519;28;20480;-61
2023/03/05 10:04:44;;;;;;;11.17;6.73;;;;;;;17.07;50.53;100429.16;5104472;28;20452;-62
2023/03/05 10:07:19;;;;;;;10.87;6.17;;;;;;;17.07;50.60;100429.16;5112498;27;20422;-62
2023/03/05 10:10:07;;;;;;;11.27;6.37;;;;;;;17.06;50.58;100433.19;5120851;28;20415;-62
2023/03/05 10:12:37;;;;;;;12.07;6.03;;;;;;;17.07;50.28;100426.31;5121038;28;20442;-61
2023/03/05 10:15:07;;;;;;;9.57;6.30;;;;;;;17.04;50.76;100424.19;5122328;28;20448;-61
2023/03/05 10:17:45;;;;;;;8.80;6.17;;;;;;;17.05;50.79;100417.28;5102553;28;20471;-61
2023/03/05 10:20:32;;;;;;;7.30;4.90;;;;;;;17.03;51.06;100414.00;5101733;28;20463;-61
2023/03/05 10:23:07;;;;;;;10.00;6.53;;;;;;;17.03;50.85;100416.84;5102032;28;20416;-61
2023/03/05 10:25:50;;;;;;;8.60;5.60;;;;;;;17.02;50.56;100411.50;5121020;28;20489;-60
2023/03/05 10:28:20;;;;;;;8.27;5.50;;;;;;;17.02;50.86;100409.47;5124811;28;20419;-61
2023/03/05 10:30:53;;;;;;;8.83;5.37;;;;;;;17.02;50.96;100409.47;5122169;28;20460;-61
2023/03/05 10:33:24;;;;;;;9.17;5.93;;;;;;;17.05;50.57;100402.22;5121270;28;20412;-62
2023/03/05 10:36:02;;;;;;;9.60;6.53;;;;;;;17.02;50.45;100394.38;5122938;28;20465;-62
2023/03/05 10:38:52;;;;;;;8.20;5.33;;;;;;;16.99;50.77;100398.81;5123100;28;20407;-62
2023/03/05 10:41:43;;;;;;;9.47;5.73;;;;;;;17.01;50.54;100390.69;5123569;28;20463;-62
2023/03/05 10:44:14;;;;;;;9.13;5.80;;;;;;;17.12;50.62;100386.09;5111238;28;20423;-61
2023/03/05 10:46:39;;;;;;;8.10;5.60;;;;;;;17.10;50.74;100385.63;5122774;28;20412;-61
2023/03/05 10:49:18;;;;;;;7.20;4.90;;;;;;;17.03;50.61;100385.47;5123667;28;20435;-61
2023/03/05 10:51:51;;;;;;;8.83;5.33;;;;;;;17.01;50.80;100381.31;5124969;28;20185;-61
2023/03/05 10:54:28;;;;;;;7.80;4.90;;;;;;;17.02;50.39;100380.13;5107343;28;20472;-61
2023/03/05 10:57:12;;;;;;;8.07;5.50;;;;;;;17.05;50.32;100373.69;5123789;28;20446;-61
2023/03/05 10:59:50;;;;;;;8.10;5.70;;;;;;;17.07;50.37;100372.13;5123608;28;20487;-62
2023/03/05 11:02:16;;;;;;;8.07;5.70;;;;;;;17.06;50.39;100373.28;5106523;28;20399;-61
2023/03/05 11:04:41;;;;;;;9.07;4.90;;;;;;;17.03;50.60;100359.78;5117089;28;20447;-62
2023/03/05 11:07:28;;;;;;;8.20;5.33;;;;;;;17.03;50.48;100358.97;5114625;28;20182;-61
2023/03/05 11:10:00;;;;;;;6.97;4.93;;;;;;;17.03;50.59;100354.09;5082547;28;20227;-62
2023/03/05 11:12:27;;;;;;;7.37;5.00;;;;;;;17.08;50.43;100350.97;5082349;28;20410;-62
2023/03/05 11:15:08;;;;;;;7.70;5.17;;;;;;;17.06;50.39;100350.47;5107672;28;20416;-61
2023/03/05 11:17:37;;;;;;;7.27;5.50;;;;;;;17.11;50.46;100349.38;5110829;28;20496;-62
2023/03/05 11:20:35;;;;;;;7.10;4.67;;;;;;;17.09;50.76;100346.06;5122149;28;20465;-62